Time;durP1;ratioP1;P1;durP2;ratioP2;P2;SDS_P1;SDS_P2;PMS_P1;PMS_P2;Temp;Humidity;BMP_temperature;BMP_pressure;BME280_temperature;BME280_humidity;BME280_pressure;Samples;Min_cycle;Max_cycle;Signal;HPM_P1;HPM_P2
2021/07/03 00:04:07;;;;;;;2.60;2.40;;;;;;;16.04;74.62;100189.88;10482297;28;20052;-69
2021/07/03 00:09:08;;;;;;;3.30;2.67;;;;;;;16.20;74.01;100189.06;10500197;28;20052;-69
2021/07/03 00:14:11;;;;;;;3.05;2.53;;;;;;;16.03;74.61;100185.53;10499314;28;20444;-69
2021/07/03 00:19:12;;;;;;;6.97;2.95;;;;;;;16.06;74.32;100189.81;10500096;28;20375;-69
2021/07/03 00:24:14;;;;;;;3.00;2.30;;;;;;;16.03;74.34;100185.53;10499107;28;20515;-69
2021/07/03 00:29:15;;;;;;;3.67;2.53;;;;;;;16.06;74.52;100188.00;10481663;28;20053;-69
2021/07/03 00:34:17;;;;;;;3.10;2.90;;;;;;;16.04;74.42;100192.53;10498827;28;20040;-68
2021/07/03 00:39:19;;;;;;;3.35;3.05;;;;;;;16.02;73.86;100182.94;10499905;28;20059;-69
2021/07/03 00:44:29;;;;;;;3.35;3.13;;;;;;;15.86;74.76;100194.34;10480272;28;20048;-69
2021/07/03 00:49:33;;;;;;;3.88;3.03;;;;;;;15.83;75.31;100196.28;10481225;28;20049;-69
2021/07/03 00:54:37;;;;;;;3.72;3.17;;;;;;;15.67;75.40;100198.00;10497807;28;20052;-69
2021/07/03 00:59:45;;;;;;;9.35;3.42;;;;;;;15.74;75.29;100205.56;10497351;28;20054;-68
2021/07/03 01:04:56;;;;;;;6.07;3.50;;;;;;;15.94;74.04;100206.34;10465049;28;20068;-68
2021/07/03 01:10:05;;;;;;;5.00;4.60;;;;;;;15.90;74.10;100210.97;10499100;28;20406;-68
2021/07/03 01:15:09;;;;;;;4.65;3.28;;;;;;;15.85;74.32;100197.09;10498612;28;20119;-69
2021/07/03 01:20:12;;;;;;;4.78;3.97;;;;;;;15.87;74.21;100203.16;10498124;28;20066;-69
2021/07/03 01:25:16;;;;;;;8.60;4.68;;;;;;;15.85;74.08;100195.28;10480352;28;20053;-68
2021/07/03 01:30:19;;;;;;;4.47;4.10;;;;;;;15.83;74.36;100202.44;10479684;28;20067;-69
2021/07/03 01:35:29;;;;;;;5.78;3.90;;;;;;;15.63;75.91;100205.22;10498572;28;20051;-69
2021/07/03 01:40:36;;;;;;;5.53;4.25;;;;;;;15.49;76.31;100212.97;10498083;28;20499;-68
2021/07/03 01:45:43;;;;;;;5.45;4.47;;;;;;;15.43;76.54;100208.00;10479735;28;20457;-68
2021/07/03 01:50:44;;;;;;;4.00;3.60;;;;;;;15.56;76.39;100203.81;10479436;28;20045;-68
2021/07/03 01:55:46;;;;;;;4.65;4.25;;;;;;;15.56;76.00;100203.81;10497528;28;20067;-68
2021/07/03 02:00:50;;;;;;;7.20;3.88;;;;;;;15.68;75.60;100195.28;10496917;28;20493;-70
2021/07/03 02:05:54;;;;;;;3.60;3.40;;;;;;;15.76;74.99;100201.06;10479622;28;20135;-70
2021/07/03 02:10:58;;;;;;;4.30;3.88;;;;;;;15.70;75.36;100190.75;10496556;28;20041;-69
2021/07/03 02:16:01;;;;;;;3.85;3.53;;;;;;;15.60;76.44;100178.88;10483281;28;20071;-69
2021/07/03 02:21:07;;;;;;;7.38;4.95;;;;;;;15.91;74.62;100185.31;10504218;28;20040;-68
2021/07/03 02:26:09;;;;;;;5.72;4.07;;;;;;;15.84;75.19;100185.59;10504400;28;20052;-68
2021/07/03 02:31:14;;;;;;;5.22;4.38;;;;;;;15.62;75.78;100187.59;10487239;28;20056;-69
2021/07/03 02:36:20;;;;;;;4.55;4.15;;;;;;;15.56;76.09;100188.75;10504114;28;20398;-68
2021/07/03 02:41:23;;;;;;;10.23;4.38;;;;;;;15.53;76.24;100182.75;10501879;28;20410;-68
2021/07/03 02:46:27;;;;;;;6.13;4.40;;;;;;;15.64;75.59;100177.81;10486159;28;20041;-68
2021/07/03 02:51:29;;;;;;;4.63;4.00;;;;;;;15.48;76.71;100182.97;10485665;28;20045;-68
2021/07/03 02:56:32;;;;;;;6.63;4.47;;;;;;;15.39;76.97;100186.94;10485419;28;20056;-69
2021/07/03 03:01:35;;;;;;;6.97;4.53;;;;;;;15.36;76.84;100186.22;10503222;28;20452;-69
2021/07/03 03:06:42;;;;;;;6.30;4.57;;;;;;;15.56;76.15;100179.97;10503316;28;20037;-68
2021/07/03 03:11:44;;;;;;;6.25;4.93;;;;;;;15.47;77.20;100175.13;10484912;28;20439;-69
2021/07/03 03:16:47;;;;;;;5.30;4.60;;;;;;;15.62;76.44;100183.13;10484698;28;20040;-69
2021/07/03 03:21:50;;;;;;;5.93;4.57;;;;;;;15.99;73.20;100185.78;10484420;28;20480;-69
2021/07/03 03:26:51;;;;;;;4.60;4.30;;;;;;;15.92;73.40;100181.72;10485215;28;20056;-68
2021/07/03 03:31:54;;;;;;;5.35;4.35;;;;;;;15.92;73.57;100173.75;10502018;28;20049;-68
2021/07/03 03:36:56;;;;;;;6.18;5.57;;;;;;;15.95;73.01;100170.97;10483721;28;20071;-68
2021/07/03 03:41:59;;;;;;;5.78;4.90;;;;;;;15.97;72.70;100164.63;10500840;28;20047;-67
2021/07/03 03:47:02;;;;;;;5.93;5.32;;;;;;;15.82;73.23;100163.63;10482868;28;20037;-67
2021/07/03 03:52:09;;;;;;;7.53;6.00;;;;;;;15.78;73.33;100162.06;10466516;28;20051;-67
2021/07/03 03:57:23;;;;;;;5.35;4.95;;;;;;;15.69;73.85;100165.19;10483203;28;20566;-67
2021/07/03 04:02:28;;;;;;;6.60;6.00;;;;;;;15.89;72.62;100153.56;10484177;28;20041;-67
2021/07/03 04:07:31;;;;;;;6.90;6.20;;;;;;;15.93;72.47;100160.41;10499980;28;20091;-69
2021/07/03 04:12:34;;;;;;;7.53;6.05;;;;;;;15.74;74.24;100170.25;10483754;28;20090;-68
2021/07/03 04:17:36;;;;;;;6.60;6.10;;;;;;;15.56;75.12;100170.22;10481828;28;20060;-68
2021/07/03 04:22:38;;;;;;;7.18;5.47;;;;;;;15.63;75.48;100178.72;10500055;28;20106;-69
2021/07/03 04:27:41;;;;;;;6.47;5.88;;;;;;;15.67;74.66;100188.28;10481051;28;20494;-67
2021/07/03 04:32:44;;;;;;;7.82;7.13;;;;;;;15.72;75.55;100180.09;10499203;28;20116;-68
2021/07/03 04:37:46;;;;;;;6.55;6.05;;;;;;;16.35;71.78;100175.03;10498021;28;20041;-69
2021/07/03 04:42:48;;;;;;;5.97;5.38;;;;;;;16.56;71.08;100173.88;10498422;28;20048;-68
2021/07/03 04:47:56;;;;;;;6.00;5.00;;;;;;;16.69;70.48;100174.06;10499388;28;20036;-68
2021/07/03 04:52:58;;;;;;;6.03;5.45;;;;;;;16.82;69.37;100175.13;10480304;28;20082;-68
2021/07/03 04:57:59;;;;;;;6.15;5.55;;;;;;;16.74;70.00;100177.34;10498237;28;20037;-68
2021/07/03 05:03:01;;;;;;;6.82;6.13;;;;;;;16.70;70.06;100182.88;10497995;28;20443;-68
2021/07/03 05:08:03;;;;;;;6.50;5.90;;;;;;;16.72;69.65;100189.84;10497842;28;20387;-68
2021/07/03 05:13:05;;;;;;;6.55;5.28;;;;;;;16.70;69.52;100185.53;10498285;28;20048;-67
2021/07/03 05:18:06;;;;;;;6.75;6.15;;;;;;;16.72;69.55;100173.03;10497550;28;20412;-68
2021/07/03 05:23:08;;;;;;;6.80;6.20;;;;;;;16.71;69.54;100168.66;10497878;28;20055;-68
2021/07/03 05:28:11;;;;;;;7.93;5.65;;;;;;;16.84;69.05;100172.38;10498560;28;20102;-68
2021/07/03 05:33:12;;;;;;;5.95;5.45;;;;;;;16.95;68.00;100171.78;10479708;28;20060;-68
2021/07/03 05:38:14;;;;;;;6.38;5.78;;;;;;;17.00;67.83;100175.91;10497214;28;20071;-68
2021/07/03 05:43:16;;;;;;;6.10;5.60;;;;;;;17.15;67.68;100174.19;10479936;28;20048;-68
2021/07/03 05:48:17;;;;;;;6.28;5.35;;;;;;;17.08;67.78;100175.44;10499506;28;20071;-68
2021/07/03 05:53:19;;;;;;;5.60;5.20;;;;;;;17.03;68.43;100181.03;10488162;28;20045;-67
2021/07/03 05:58:20;;;;;;;5.55;5.15;;;;;;;17.02;68.00;100181.13;10505752;28;20656;-68
2021/07/03 06:03:22;;;;;;;6.30;5.78;;;;;;;17.21;67.00;100184.44;10487067;28;20094;-69
2021/07/03 06:08:24;;;;;;;6.13;5.63;;;;;;;17.32;67.07;100190.00;10469879;28;20555;-68
2021/07/03 06:13:25;;;;;;;5.95;5.45;;;;;;;17.26;67.18;100187.69;10504146;28;20110;-69
2021/07/03 06:18:27;;;;;;;7.13;6.40;;;;;;;17.42;68.06;100186.81;10503903;28;20029;-69
2021/07/03 06:23:30;;;;;;;7.07;6.38;;;;;;;17.76;65.73;100175.13;10504720;28;20531;-68
2021/07/03 06:28:34;;;;;;;8.33;7.63;;;;;;;17.74;65.64;100177.84;10503440;28;20075;-69
2021/07/03 06:33:36;;;;;;;7.35;6.78;;;;;;;18.09;67.62;100181.06;10504406;28;20048;-68
2021/07/03 06:38:38;;;;;;;7.32;5.95;;;;;;;18.87;63.66;100170.91;10504318;28;20053;-70
2021/07/03 06:43:39;;;;;;;6.60;5.82;;;;;;;19.22;60.39;100164.28;10503410;28;20491;-69
2021/07/03 06:48:41;;;;;;;7.53;6.93;;;;;;;19.26;59.13;100174.63;10502757;28;20047;-68
2021/07/03 06:53:42;;;;;;;6.57;5.97;;;;;;;18.90;60.82;100167.19;10503606;28;20048;-68
2021/07/03 06:58:44;;;;;;;6.13;5.72;;;;;;;19.58;59.87;100159.16;10501792;28;20406;-68
2021/07/03 07:03:45;;;;;;;6.28;5.68;;;;;;;20.32;58.27;100155.00;10502141;28;20044;-68
2021/07/03 07:08:47;;;;;;;4.95;4.55;;;;;;;20.53;59.03;100146.44;10501411;28;20033;-68
2021/07/03 07:13:48;;;;;;;6.05;5.57;;;;;;;21.01;59.19;100149.19;10501880;28;20052;-68
2021/07/03 07:18:50;;;;;;;5.55;5.15;;;;;;;21.22;57.77;100144.09;10484267;28;20032;-68
2021/07/03 07:23:51;;;;;;;5.82;5.43;;;;;;;20.76;58.29;100148.34;10501422;28;20406;-68
2021/07/03 07:28:53;;;;;;;5.80;5.30;;;;;;;20.54;57.98;100141.00;10501439;28;20067;-68
2021/07/03 07:33:56;;;;;;;6.35;5.65;;;;;;;20.94;57.48;100137.25;10482851;28;20058;-69
2021/07/03 07:38:57;;;;;;;5.10;4.45;;;;;;;21.39;54.33;100133.03;10500180;28;20448;-68
2021/07/03 07:43:59;;;;;;;5.18;4.78;;;;;;;21.37;56.34;100124.25;10500643;28;20040;-68
2021/07/03 07:49:01;;;;;;;5.30;4.90;;;;;;;20.81;54.13;100119.47;10500028;28;20071;-68
2021/07/03 07:54:04;;;;;;;6.72;4.43;;;;;;;21.56;53.72;100113.88;10500008;28;20131;-68
2021/07/03 07:59:05;;;;;;;4.05;3.67;;;;;;;21.61;52.53;100106.38;10481905;28;20058;-68
2021/07/03 08:04:07;;;;;;;3.90;3.60;;;;;;;21.78;50.83;100101.53;10500142;28;20052;-66
2021/07/03 08:09:08;;;;;;;3.80;3.50;;;;;;;21.94;50.84;100102.03;10482183;28;20106;-68
2021/07/03 08:14:10;;;;;;;4.13;3.83;;;;;;;21.67;51.76;100083.63;10500019;28;20406;-68
2021/07/03 08:19:11;;;;;;;4.65;3.58;;;;;;;21.39;49.45;100088.41;10498951;28;20048;-68
2021/07/03 08:24:13;;;;;;;5.10;4.53;;;;;;;21.83;48.85;100094.88;10498750;28;20056;-67
2021/07/03 08:29:14;;;;;;;3.92;3.63;;;;;;;21.55;50.24;100090.75;10499176;28;20063;-67
2021/07/03 08:34:17;;;;;;;3.72;3.42;;;;;;;22.52;47.96;100080.53;10480517;28;20067;-67
2021/07/03 08:39:18;;;;;;;3.38;3.08;;;;;;;22.50;45.76;100083.34;10498418;28;20036;-68
2021/07/03 08:44:20;;;;;;;3.47;3.03;;;;;;;22.75;44.59;100081.34;10480643;28;20094;-69
2021/07/03 08:49:21;;;;;;;3.63;2.80;;;;;;;22.91;44.01;100082.66;10498782;28;20056;-68
2021/07/03 08:54:23;;;;;;;3.65;3.45;;;;;;;22.87;42.58;100074.97;10500259;28;20526;-69
2021/07/03 08:59:26;;;;;;;4.15;3.50;;;;;;;23.06;45.00;100075.19;10498612;28;20090;-69
2021/07/03 09:04:39;;;;;;;3.42;3.15;;;;;;;22.96;46.32;100065.34;10498383;28;20383;-68
2021/07/03 09:09:40;;;;;;;4.10;3.70;;;;;;;23.62;43.31;100071.38;10496750;28;20075;-68
2021/07/03 09:14:42;;;;;;;3.83;3.50;;;;;;;23.51;41.87;100071.47;10495291;28;20040;-68
2021/07/03 09:19:50;;;;;;;3.58;3.20;;;;;;;23.07;43.05;100073.38;10495636;28;20052;-69
2021/07/03 09:24:52;;;;;;;4.88;3.38;;;;;;;23.42;42.80;100068.59;10505080;28;20036;-68
2021/07/03 09:29:53;;;;;;;3.17;2.97;;;;;;;24.25;40.59;100058.72;10494015;28;20044;-68
2021/07/03 09:34:55;;;;;;;4.13;3.80;;;;;;;24.03;41.86;100054.41;10511376;28;20044;-68
2021/07/03 09:40:08;;;;;;;3.05;2.85;;;;;;;25.04;39.63;100052.56;10511384;28;20048;-70
2021/07/03 09:45:11;;;;;;;2.80;2.60;;;;;;;24.50;40.96;100059.28;10494186;28;20044;-70
2021/07/03 09:50:13;;;;;;;3.30;3.10;;;;;;;24.55;40.85;100052.50;10493026;28;20548;-69
2021/07/03 09:55:14;;;;;;;3.13;2.83;;;;;;;24.46;39.06;100052.47;10510616;28;20047;-70
2021/07/03 10:00:16;;;;;;;2.67;2.35;;;;;;;25.34;39.00;100040.84;10510642;28;20053;-69
2021/07/03 10:05:21;;;;;;;3.22;3.03;;;;;;;25.50;39.91;100051.88;10511672;28;20095;-71
2021/07/03 10:10:26;;;;;;;2.90;2.70;;;;;;;25.10;40.69;100049.31;10510513;28;20052;-74
2021/07/03 10:15:33;;;;;;;3.03;2.78;;;;;;;24.88;40.10;100040.53;10509233;28;20414;-73
2021/07/03 10:20:36;;;;;;;3.30;3.00;;;;;;;26.00;39.08;100031.94;10510784;28;20506;-75
2021/07/03 10:25:43;;;;;;;3.00;2.80;;;;;;;25.87;39.92;100037.63;10508987;28;20045;-73
2021/07/03 10:30:49;;;;;;;3.47;3.13;;;;;;;24.97;40.12;100029.91;10511414;28;20049;-72
2021/07/03 10:35:52;;;;;;;4.57;3.55;;;;;;;25.16;39.89;100027.25;10506970;28;20062;-74
2021/07/03 10:41:11;;;;;;;4.72;3.40;;;;;;;25.00;40.65;100019.72;10503981;28;20048;-74
2021/07/03 10:46:32;;;;;;;3.05;2.75;;;;;;;25.92;36.64;100008.41;10505447;28;20111;-72
2021/07/03 10:51:45;;;;;;;2.90;2.65;;;;;;;24.98;39.44;100010.97;10504527;28;20088;-73
2021/07/03 10:56:50;;;;;;;3.35;3.05;;;;;;;24.50;40.81;100000.16;10504446;28;20490;-73
2021/07/03 11:01:53;;;;;;;3.23;3.03;;;;;;;25.36;40.71;100002.03;10486966;28;20478;-73
2021/07/03 11:06:54;;;;;;;4.22;2.90;;;;;;;25.49;37.98;100000.88;10504492;28;20115;-73
2021/07/03 11:12:09;;;;;;;2.90;2.70;;;;;;;25.78;37.42;99998.13;10505637;28;20048;-73
2021/07/03 11:17:13;;;;;;;;;;;;;;;26.05;37.63;99992.78;10504081;28;20036;-74
2021/07/03 11:22:23;;;;;;;3.47;2.88;;;;;;;25.23;39.37;99998.78;10505003;28;19981;-74
2021/07/03 11:27:34;;;;;;;2.90;2.70;;;;;;;25.73;39.51;99995.00;10487747;28;20443;-73
2021/07/03 11:32:35;;;;;;;3.83;2.80;;;;;;;25.40;39.22;99991.81;10505772;28;20044;-74
2021/07/03 11:37:38;;;;;;;3.08;2.58;;;;;;;25.48;38.68;99989.25;10506060;28;20090;-74
2021/07/03 11:42:45;;;;;;;2.85;2.65;;;;;;;26.17;38.26;99988.03;10504985;28;20516;-74
2021/07/03 11:47:52;;;;;;;2.58;2.38;;;;;;;26.10;36.53;99984.25;10507742;28;20454;-74
2021/07/03 11:52:55;;;;;;;4.30;2.92;;;;;;;25.92;40.24;99984.19;10486491;28;20059;-74
2021/07/03 11:57:58;;;;;;;2.40;2.30;;;;;;;26.44;37.31;99983.66;10486163;28;20052;-74
2021/07/03 12:03:01;;;;;;;3.28;2.45;;;;;;;26.54;36.93;99973.66;10503885;28;20043;-74
2021/07/03 12:08:12;;;;;;;4.85;2.55;;;;;;;25.45;36.88;99962.63;10502721;28;20036;-72
2021/07/03 12:13:19;;;;;;;2.80;2.60;;;;;;;26.32;37.15;99961.44;10502949;28;20072;-74
2021/07/03 12:18:42;;;;;;;2.80;2.60;;;;;;;26.26;36.37;99964.75;10502876;28;20079;-73
2021/07/03 12:23:46;;;;;;;3.60;2.90;;;;;;;26.13;39.38;99955.16;10502565;28;20051;-73
2021/07/03 12:28:58;;;;;;;2.65;2.45;;;;;;;26.03;40.03;99956.19;10502116;28;20048;-72
2021/07/03 12:34:16;;;;;;;2.72;2.58;;;;;;;26.65;36.36;99944.63;10502429;28;20044;-73
2021/07/03 12:39:21;;;;;;;9.98;3.03;;;;;;;26.42;37.70;99944.19;10501568;28;20041;-72
2021/07/03 12:44:39;;;;;;;;;;;;;;;26.73;39.90;99938.44;10502398;28;20041;-74
2021/07/03 12:49:44;;;;;;;2.70;2.50;;;;;;;26.67;39.64;99945.31;10500793;28;19925;-72
2021/07/03 12:54:55;;;;;;;2.85;2.65;;;;;;;27.06;37.55;99936.88;10500999;28;20059;-75
2021/07/03 13:00:00;;;;;;;4.13;2.58;;;;;;;26.84;37.70;99940.06;10483888;28;20549;-74
2021/07/03 13:05:05;;;;;;;5.57;3.10;;;;;;;27.01;38.32;99931.09;10503626;28;20048;-74
2021/07/03 13:10:13;;;;;;;2.75;2.20;;;;;;;27.19;35.66;99925.72;10502402;28;20063;-75
2021/07/03 13:15:14;;;;;;;2.47;2.28;;;;;;;26.77;37.42;99929.03;10500892;28;20066;-73
2021/07/03 13:20:16;;;;;;;1.92;1.83;;;;;;;26.71;38.72;99923.44;10501201;28;20498;-73
2021/07/03 13:25:18;;;;;;;2.20;1.90;;;;;;;26.55;35.81;99924.97;10501852;28;20070;-75
2021/07/03 13:30:19;;;;;;;2.50;2.30;;;;;;;25.94;37.73;99922.09;10501418;28;20041;-74
2021/07/03 13:35:22;;;;;;;2.60;2.40;;;;;;;25.92;39.14;99920.41;10502195;28;20040;-73
2021/07/03 13:40:24;;;;;;;2.35;2.25;;;;;;;26.08;39.80;99917.06;10501417;28;20075;-72
2021/07/03 13:45:25;;;;;;;3.15;2.95;;;;;;;25.92;39.42;99911.47;10500583;28;20445;-72
2021/07/03 13:50:43;;;;;;;2.47;2.33;;;;;;;25.95;37.79;99902.25;10467961;28;20052;-72
2021/07/03 13:55:45;;;;;;;2.38;2.20;;;;;;;26.56;37.50;99905.13;10500899;28;20037;-72
2021/07/03 14:00:47;;;;;;;2.78;2.40;;;;;;;26.45;37.65;99901.81;10500372;28;20055;-73
2021/07/03 14:05:49;;;;;;;2.95;2.15;;;;;;;26.36;39.28;99885.50;10501116;28;20115;-72
2021/07/03 14:10:51;;;;;;;2.42;2.15;;;;;;;26.21;38.11;99895.16;10503869;28;20514;-72
2021/07/03 14:15:52;;;;;;;1.65;1.55;;;;;;;26.01;37.08;99883.63;10487678;28;20140;-72
2021/07/03 14:20:54;;;;;;;2.65;2.13;;;;;;;26.07;37.92;99877.63;10487788;28;20050;-73
2021/07/03 14:25:56;;;;;;;1.80;1.70;;;;;;;26.32;36.44;99878.72;10505530;28;20442;-73
2021/07/03 14:30:57;;;;;;;1.75;1.63;;;;;;;26.46;36.53;99871.16;10505518;28;20049;-73
2021/07/03 14:35:59;;;;;;;2.20;1.80;;;;;;;26.35;36.34;99864.13;10505087;28;20055;-73
2021/07/03 14:41:00;;;;;;;1.52;1.42;;;;;;;26.70;36.96;99857.88;10503039;28;20052;-73
2021/07/03 14:46:02;;;;;;;2.70;1.60;;;;;;;27.19;34.80;99852.00;10504679;28;20119;-72
2021/07/03 14:51:04;;;;;;;1.38;1.27;;;;;;;26.59;35.83;99842.78;10504110;28;20066;-72
2021/07/03 14:56:06;;;;;;;2.53;1.60;;;;;;;26.65;35.42;99850.25;10504443;28;20036;-73
2021/07/03 15:01:08;;;;;;;1.60;1.50;;;;;;;26.71;35.59;99839.84;10504228;28;20105;-72
2021/07/03 15:06:11;;;;;;;1.50;1.40;;;;;;;26.17;36.49;99840.72;10486269;28;20044;-72
2021/07/03 15:11:12;;;;;;;2.00;1.27;;;;;;;26.92;35.37;99835.78;10487124;28;20045;-72
2021/07/03 15:16:14;;;;;;;2.65;1.17;;;;;;;27.06;34.91;99834.34;10485937;28;20040;-72
2021/07/03 15:21:16;;;;;;;1.42;1.30;;;;;;;27.35;35.92;99842.13;10502628;28;20561;-73
2021/07/03 15:26:18;;;;;;;1.40;1.30;;;;;;;26.52;35.84;99839.03;10502527;28;20044;-72
2021/07/03 15:31:21;;;;;;;2.13;1.30;;;;;;;26.40;36.58;99846.47;10503053;28;20453;-71
2021/07/03 15:36:25;;;;;;;1.70;1.60;;;;;;;25.86;38.36;99842.06;10502665;28;20052;-71
2021/07/03 15:41:26;;;;;;;1.75;1.65;;;;;;;26.02;38.42;99830.59;10501924;28;20052;-71
2021/07/03 15:46:28;;;;;;;1.55;1.45;;;;;;;26.06;37.97;99837.38;10502863;28;20068;-72
2021/07/03 15:51:30;;;;;;;2.20;1.85;;;;;;;26.02;38.42;99839.53;10485430;28;20044;-72
2021/07/03 15:56:31;;;;;;;1.65;1.55;;;;;;;26.31;39.14;99823.16;10483493;28;20116;-73
2021/07/03 16:01:33;;;;;;;2.05;1.90;;;;;;;26.57;36.74;99827.78;10502032;28;20040;-73
2021/07/03 16:06:35;;;;;;;2.80;1.90;;;;;;;26.39;38.56;99825.94;10500730;28;20090;-73
2021/07/03 16:11:36;;;;;;;3.20;2.22;;;;;;;26.24;38.25;99826.63;10500225;28;20054;-73
2021/07/03 16:16:39;;;;;;;2.00;1.90;;;;;;;26.00;38.39;99830.78;10500510;28;20051;-74
2021/07/03 16:21:40;;;;;;;4.35;2.42;;;;;;;25.29;40.96;99828.72;10500451;28;20041;-72
2021/07/03 16:26:42;;;;;;;1.73;1.63;;;;;;;25.80;40.08;99819.28;10500963;28;20082;-73
2021/07/03 16:31:43;;;;;;;3.50;1.92;;;;;;;25.52;38.86;99823.81;10499329;28;20052;-72
2021/07/03 16:36:45;;;;;;;1.63;1.52;;;;;;;25.35;38.82;99821.91;10499470;28;20041;-72
2021/07/03 16:41:47;;;;;;;2.00;1.85;;;;;;;25.29;39.38;99819.81;10499636;28;20044;-73
2021/07/03 16:46:49;;;;;;;1.75;1.65;;;;;;;25.15;40.02;99823.84;10499548;28;20124;-72
2021/07/03 16:51:50;;;;;;;2.05;1.85;;;;;;;25.15;38.73;99813.94;10500014;28;20453;-72
2021/07/03 16:56:52;;;;;;;2.35;1.75;;;;;;;24.58;40.42;99814.91;10499463;28;20040;-73
2021/07/03 17:01:53;;;;;;;2.20;2.10;;;;;;;24.07;42.59;99807.94;10499556;28;20048;-73
2021/07/03 17:06:55;;;;;;;2.28;2.17;;;;;;;23.77;42.43;99808.91;10499052;28;20059;-73
2021/07/03 17:11:56;;;;;;;2.08;1.98;;;;;;;23.53;42.30;99811.94;10499699;28;20067;-74
2021/07/03 17:16:58;;;;;;;2.35;2.15;;;;;;;23.20;42.97;99810.38;10498985;28;20044;-73
2021/07/03 17:22:00;;;;;;;2.80;2.10;;;;;;;23.31;43.44;99811.16;10500260;28;20064;-73
2021/07/03 17:27:03;;;;;;;2.33;2.10;;;;;;;23.52;42.45;99800.34;10482399;28;20474;-73
2021/07/03 17:32:05;;;;;;;2.58;1.77;;;;;;;23.51;42.86;99804.03;10498915;28;20051;-73
2021/07/03 17:37:07;;;;;;;2.38;2.17;;;;;;;23.22;43.98;99801.22;10481774;28;20045;-73
2021/07/03 17:42:08;;;;;;;3.15;2.55;;;;;;;23.27;43.02;99803.50;10499276;28;20494;-72
2021/07/03 17:47:10;;;;;;;2.70;2.50;;;;;;;23.13;43.36;99805.56;10505885;28;20067;-73
2021/07/03 17:52:13;;;;;;;2.00;1.90;;;;;;;22.93;43.65;99801.09;10506775;28;20075;-73
2021/07/03 17:57:15;;;;;;;3.55;3.22;;;;;;;22.79;44.49;99794.22;10506707;28;20044;-73
2021/07/03 18:02:16;;;;;;;2.80;2.60;;;;;;;22.72;44.73;99790.38;10506093;28;20049;-73
2021/07/03 18:07:18;;;;;;;2.72;2.30;;;;;;;22.66;45.26;99789.06;10506394;28;20045;-73
2021/07/03 18:12:20;;;;;;;3.25;2.55;;;;;;;22.83;44.50;99789.44;10505886;28;20433;-73
2021/07/03 18:17:21;;;;;;;2.60;2.40;;;;;;;22.49;46.33;99788.81;10507069;28;20044;-75
2021/07/03 18:22:23;;;;;;;2.50;2.30;;;;;;;22.50;46.18;99788.69;10505663;28;20045;-73
2021/07/03 18:27:25;;;;;;;3.28;2.45;;;;;;;22.32;46.82;99788.44;10505423;28;20043;-72
2021/07/03 18:32:26;;;;;;;2.47;2.20;;;;;;;22.18;47.04;99783.41;10502506;28;20040;-73
2021/07/03 18:37:28;;;;;;;2.78;2.58;;;;;;;22.04;47.70;99783.66;10502645;28;20039;-74
2021/07/03 18:42:30;;;;;;;2.42;2.22;;;;;;;22.04;47.61;99786.31;10503117;28;20045;-74
2021/07/03 18:47:32;;;;;;;2.97;2.78;;;;;;;21.97;50.01;99787.84;10504449;28;20154;-73
2021/07/03 18:52:34;;;;;;;4.95;4.53;;;;;;;21.99;49.55;99783.19;10505443;28;20052;-73
2021/07/03 18:57:35;;;;;;;3.13;2.85;;;;;;;21.93;50.36;99789.91;10502718;28;20041;-73
2021/07/03 19:02:37;;;;;;;2.75;2.20;;;;;;;21.84;51.72;99796.88;10504846;28;20048;-73
2021/07/03 19:07:40;;;;;;;2.75;2.40;;;;;;;21.56;52.29;99800.09;10504521;28;20090;-73
2021/07/03 19:12:42;;;;;;;2.90;2.70;;;;;;;21.15;53.75;99804.22;10504423;28;20484;-73
2021/07/03 19:17:45;;;;;;;2.90;2.63;;;;;;;20.94;54.20;99804.13;10503810;28;20040;-73
2021/07/03 19:22:48;;;;;;;3.05;2.85;;;;;;;20.75;54.59;99802.00;10485928;28;20055;-73
2021/07/03 19:27:49;;;;;;;3.25;3.05;;;;;;;20.78;54.79;99809.78;10485960;28;20056;-73
2021/07/03 19:32:53;;;;;;;3.75;3.40;;;;;;;20.52;55.69;99805.63;10504525;28;20478;-73
2021/07/03 19:37:55;;;;;;;6.03;5.45;;;;;;;20.51;55.38;99815.44;10503127;28;20045;-73
2021/07/03 19:42:56;;;;;;;4.40;4.10;;;;;;;20.36;56.04;99805.88;10505448;28;20048;-73
2021/07/03 19:47:58;;;;;;;3.78;3.50;;;;;;;19.96;58.33;99808.03;10487600;28;20036;-73
2021/07/03 19:53:00;;;;;;;4.13;3.83;;;;;;;19.83;57.62;99810.75;10488121;28;20051;-74
2021/07/03 19:58:06;;;;;;;4.65;4.32;;;;;;;19.67;58.07;99815.53;10506849;28;20487;-74
2021/07/03 20:03:07;;;;;;;4.53;4.15;;;;;;;19.52;58.56;99818.31;10505137;28;20072;-74
2021/07/03 20:08:09;;;;;;;5.07;4.78;;;;;;;19.45;58.82;99817.03;10504895;28;20113;-74
2021/07/03 20:13:11;;;;;;;4.82;4.38;;;;;;;19.44;57.97;99820.69;10504194;28;20500;-74
2021/07/03 20:18:12;;;;;;;5.20;4.70;;;;;;;19.45;57.42;99829.53;10503746;28;20466;-74
2021/07/03 20:23:14;;;;;;;4.88;4.57;;;;;;;19.34;57.98;99830.28;10504468;28;20051;-74
2021/07/03 20:28:16;;;;;;;5.30;4.80;;;;;;;19.22;58.24;99817.84;10503032;28;20037;-74
2021/07/03 20:33:19;;;;;;;4.82;4.25;;;;;;;19.06;58.00;99818.06;10504431;28;20403;-74
2021/07/03 20:38:20;;;;;;;5.72;5.22;;;;;;;19.03;58.90;99815.59;10503690;28;20039;-74
2021/07/03 20:43:23;;;;;;;5.40;4.97;;;;;;;18.86;58.97;99817.66;10503322;28;20054;-74
2021/07/03 20:48:25;;;;;;;5.13;4.82;;;;;;;18.80;58.66;99822.53;10503574;28;20063;-74
2021/07/03 20:53:26;;;;;;;5.30;4.90;;;;;;;18.57;59.21;99818.78;10503581;28;20048;-73
2021/07/03 20:58:28;;;;;;;5.28;4.88;;;;;;;18.48;59.19;99806.94;10504240;28;20044;-74
2021/07/03 21:03:29;;;;;;;5.95;5.55;;;;;;;18.45;59.59;99808.94;10503298;28;20040;-74
2021/07/03 21:08:31;;;;;;;5.32;4.93;;;;;;;18.36;59.87;99813.94;10504319;28;20040;-75
2021/07/03 21:13:33;;;;;;;5.35;4.95;;;;;;;18.37;60.44;99806.81;10500720;28;20051;-74
2021/07/03 21:18:34;;;;;;;6.25;5.85;;;;;;;18.23;61.25;99812.22;10499157;28;20116;-74
2021/07/03 21:23:36;;;;;;;7.50;6.85;;;;;;;18.21;61.54;99814.97;10499401;28;20041;-73
2021/07/03 21:28:38;;;;;;;7.55;7.00;;;;;;;18.11;61.69;99825.38;10500510;28;20041;-72
2021/07/03 21:33:39;;;;;;;8.75;8.15;;;;;;;18.09;62.18;99821.97;10499373;28;20052;-73
2021/07/03 21:38:41;;;;;;;11.98;11.07;;;;;;;17.93;62.53;99829.25;10497942;28;20048;-73
2021/07/03 21:43:43;;;;;;;8.98;8.38;;;;;;;17.85;62.23;99828.91;10500231;28;20097;-69
2021/07/03 21:48:44;;;;;;;7.32;6.82;;;;;;;17.82;61.74;99826.44;10498783;28;20044;-69
2021/07/03 21:53:46;;;;;;;7.85;7.18;;;;;;;17.69;62.26;99815.69;10498792;28;20102;-69
2021/07/03 21:59:04;;;;;;;7.65;7.22;;;;;;;17.55;62.67;99816.59;10498503;28;20441;-69
2021/07/03 22:04:09;;;;;;;7.00;6.60;;;;;;;17.54;62.81;99814.91;10481034;28;20090;-69
2021/07/03 22:09:13;;;;;;;6.50;6.10;;;;;;;17.53;62.82;99818.50;10499121;28;20406;-69
2021/07/03 22:14:14;;;;;;;6.75;6.25;;;;;;;17.53;62.92;99813.19;10499513;28;20110;-69
2021/07/03 22:19:16;;;;;;;7.13;6.68;;;;;;;17.48;63.63;99809.94;10480138;28;20048;-69
2021/07/03 22:24:18;;;;;;;7.70;7.20;;;;;;;17.61;63.17;99810.03;10498603;28;20174;-69
2021/07/03 22:29:19;;;;;;;9.88;7.70;;;;;;;17.43;63.86;99813.88;10498678;28;20449;-70
2021/07/03 22:34:21;;;;;;;8.52;7.93;;;;;;;17.27;64.51;99808.69;10505246;28;20049;-69
2021/07/03 22:39:22;;;;;;;7.82;7.43;;;;;;;17.14;65.27;99812.09;10505118;28;20456;-69
2021/07/03 22:44:24;;;;;;;7.97;7.38;;;;;;;17.40;64.44;99801.66;10504386;28;20098;-70
2021/07/03 22:49:25;;;;;;;9.23;8.63;;;;;;;17.32;64.90;99795.97;10504943;28;20098;-70
2021/07/03 22:54:27;;;;;;;10.77;10.00;;;;;;;17.51;63.84;99804.44;10470609;28;20048;-70
2021/07/03 22:59:29;;;;;;;10.02;9.35;;;;;;;17.17;64.15;99795.09;10504806;28;20040;-70
2021/07/03 23:04:31;;;;;;;10.27;9.68;;;;;;;16.72;65.68;99794.34;10504354;28;20048;-70
2021/07/03 23:09:33;;;;;;;10.52;9.93;;;;;;;16.45;66.38;99786.22;10503747;28;20413;-69
2021/07/03 23:14:34;;;;;;;9.52;8.93;;;;;;;16.38;66.20;99785.75;10504191;28;20052;-70
2021/07/03 23:19:36;;;;;;;10.48;9.80;;;;;;;16.76;64.49;99790.56;10503668;28;20048;-69
2021/07/03 23:24:37;;;;;;;10.23;9.43;;;;;;;16.82;64.38;99791.97;10485674;28;20044;-70